createdAt,value
2019-06-20T00:00:15.389Z,3.27
2019-06-20T00:02:47.087Z,2.90
2019-06-20T00:05:18.840Z,2.80
2019-06-20T00:07:50.454Z,2.73
2019-06-20T00:10:21.855Z,2.73
2019-06-20T00:13:00.535Z,3.30
2019-06-20T00:15:25.890Z,2.97
2019-06-20T00:17:56.830Z,2.67
2019-06-20T00:20:28.577Z,2.53
2019-06-20T00:22:59.877Z,3.07
2019-06-20T00:25:31.198Z,3.30
2019-06-20T00:28:02.863Z,3.60
2019-06-20T00:30:34.121Z,3.10
2019-06-20T00:33:05.413Z,3.43
2019-06-20T00:35:36.991Z,2.90
2019-06-20T00:38:08.378Z,3.10
2019-06-20T00:40:39.944Z,3.33
2019-06-20T00:43:17.407Z,3.23
2019-06-20T00:45:44.421Z,3.50
2019-06-20T00:48:15.232Z,3.47
2019-06-20T00:50:46.458Z,3.00
2019-06-20T00:53:18.178Z,3.27
2019-06-20T00:55:50.065Z,3.30
2019-06-20T00:58:21.407Z,3.37
2019-06-20T01:00:52.747Z,3.13
2019-06-20T01:03:23.658Z,3.60
2019-06-20T01:05:54.953Z,3.40
2019-06-20T01:08:25.831Z,4.20
2019-06-20T01:10:57.225Z,3.53
2019-06-20T01:13:33.466Z,3.73
2019-06-20T01:16:02.226Z,3.73
2019-06-20T01:18:33.192Z,3.80
2019-06-20T01:21:04.927Z,3.90
2019-06-20T01:23:36.209Z,3.50
2019-06-20T01:26:07.528Z,3.40
2019-06-20T01:28:38.773Z,3.67
2019-06-20T01:31:10.365Z,3.60
2019-06-20T01:33:41.307Z,3.73
2019-06-20T01:36:13.176Z,3.80
2019-06-20T01:38:44.756Z,4.10
2019-06-20T01:41:15.693Z,3.40
2019-06-20T01:43:50.942Z,3.53
2019-06-20T01:46:20.515Z,3.57
2019-06-20T01:48:51.827Z,2.93
2019-06-20T01:51:23.078Z,3.10
2019-06-20T01:53:53.784Z,3.03
2019-06-20T01:56:25.325Z,3.63
2019-06-20T01:58:56.621Z,3.07
2019-06-20T02:01:27.613Z,3.00
2019-06-20T02:03:59.214Z,3.53
2019-06-20T02:06:31.076Z,3.10
2019-06-20T02:09:02.436Z,3.40
2019-06-20T02:11:33.366Z,3.40
2019-06-20T02:14:07.493Z,3.30
2019-06-20T02:16:36.486Z,3.33
2019-06-20T02:19:07.917Z,2.90
2019-06-20T02:21:39.452Z,3.20
2019-06-20T02:24:10.860Z,3.07
2019-06-20T02:26:42.156Z,3.83
2019-06-20T02:29:13.783Z,3.50
2019-06-20T02:31:45.015Z,4.20
2019-06-20T02:34:15.990Z,3.87
2019-06-20T02:36:47.594Z,3.80
2019-06-20T02:39:19.394Z,3.73
2019-06-20T02:41:50.373Z,3.80
2019-06-20T02:44:30.019Z,4.20
2019-06-20T02:46:55.941Z,3.60
2019-06-20T02:49:27.775Z,3.97
2019-06-20T02:52:00.055Z,4.30
2019-06-20T02:54:32.004Z,5.07
2019-06-20T02:57:02.690Z,4.47
2019-06-20T02:59:33.637Z,4.20
2019-06-20T03:02:05.637Z,4.47
2019-06-20T03:04:37.503Z,4.80
2019-06-20T03:07:08.803Z,4.77
2019-06-20T03:09:40.351Z,4.87
2019-06-20T03:12:11.900Z,4.40
2019-06-20T03:14:45.663Z,4.30
2019-06-20T03:17:16.528Z,4.33
2019-06-20T03:19:48.096Z,4.70
2019-06-20T03:22:19.082Z,4.70
2019-06-20T03:24:50.935Z,5.37
2019-06-20T03:27:22.956Z,4.90
2019-06-20T03:29:54.792Z,5.50
2019-06-20T03:32:25.499Z,4.80
2019-06-20T03:34:56.817Z,4.70
2019-06-20T03:37:28.444Z,4.83
2019-06-20T03:39:59.987Z,4.47
2019-06-20T03:42:31.280Z,4.57
2019-06-20T03:45:02.984Z,5.17
2019-06-20T03:47:34.531Z,4.80
2019-06-20T03:50:05.863Z,4.97
2019-06-20T03:52:37.273Z,5.00
2019-06-20T03:55:08.654Z,5.00
2019-06-20T03:57:40.093Z,5.47
2019-06-20T04:00:13.958Z,4.70
2019-06-20T04:02:45.906Z,4.70
2019-06-20T04:05:16.900Z,4.80
2019-06-20T04:07:48.796Z,5.03
2019-06-20T04:10:20.856Z,4.60
2019-06-20T04:12:52.535Z,5.10
2019-06-20T04:15:24.056Z,4.07
2019-06-20T04:17:55.456Z,4.77
2019-06-20T04:20:26.764Z,4.80
2019-06-20T04:22:57.711Z,4.50
2019-06-20T04:25:29.243Z,4.73
2019-06-20T04:28:00.791Z,4.73
2019-06-20T04:30:32.177Z,5.23
2019-06-20T04:33:04.373Z,4.40
2019-06-20T04:35:36.247Z,5.00
2019-06-20T04:38:07.286Z,4.60
2019-06-20T04:40:38.270Z,4.50
2019-06-20T04:43:10.129Z,4.30
2019-06-20T04:45:59.468Z,4.13
2019-06-20T04:48:31.519Z,4.33
2019-06-20T04:51:03.334Z,4.60
2019-06-20T04:53:34.906Z,3.93
2019-06-20T04:56:06.260Z,4.10
2019-06-20T04:58:37.881Z,4.47
2019-06-20T05:01:09.652Z,4.40
2019-06-20T05:03:40.968Z,4.37
2019-06-20T05:06:11.899Z,4.50
2019-06-20T05:08:42.980Z,5.20
2019-06-20T05:11:14.261Z,5.30
2019-06-20T05:13:45.872Z,5.50
2019-06-20T05:16:17.514Z,4.90
2019-06-20T05:18:49.097Z,5.13
2019-06-20T05:21:22.483Z,5.53
2019-06-20T05:23:53.380Z,4.53
2019-06-20T05:26:24.412Z,5.27
2019-06-20T05:28:55.908Z,5.20
2019-06-20T05:31:27.516Z,5.30
2019-06-20T05:34:01.543Z,5.23
2019-06-20T05:36:33.656Z,5.00
2019-06-20T05:39:06.768Z,5.33
2019-06-20T05:41:38.009Z,6.03
2019-06-20T05:44:08.870Z,4.57
2019-06-20T05:46:40.136Z,4.10
2019-06-20T05:49:11.871Z,4.60
2019-06-20T05:51:43.112Z,4.30
2019-06-20T05:54:14.629Z,4.70
2019-06-20T05:56:45.975Z,4.60
2019-06-20T05:59:17.768Z,4.17
2019-06-20T06:01:48.970Z,4.70
2019-06-20T06:04:20.496Z,4.23
2019-06-20T06:06:51.494Z,4.50
2019-06-20T06:09:23.078Z,3.93
2019-06-20T06:11:54.091Z,4.30
2019-06-20T06:14:25.614Z,4.50
2019-06-20T06:16:56.630Z,4.80
2019-06-20T06:19:27.914Z,4.20
2019-06-20T06:21:59.619Z,4.63
2019-06-20T06:24:31.535Z,4.00
2019-06-20T06:27:02.553Z,4.63
2019-06-20T06:29:34.206Z,5.27
2019-06-20T06:32:05.973Z,6.87
2019-06-20T06:34:38.832Z,4.50
2019-06-20T06:37:10.424Z,5.27
2019-06-20T06:39:43.545Z,4.40
2019-06-20T06:42:15.294Z,4.50
2019-06-20T06:44:46.672Z,4.83
2019-06-20T06:47:18.452Z,4.23
2019-06-20T06:49:49.562Z,4.63
2019-06-20T06:52:20.798Z,5.20
2019-06-20T06:54:52.119Z,5.07
2019-06-20T06:57:24.138Z,4.50
2019-06-20T06:59:55.268Z,4.93
2019-06-20T07:02:26.771Z,5.10
2019-06-20T07:04:57.719Z,5.00
2019-06-20T07:07:29.647Z,4.63
2019-06-20T07:10:01.066Z,4.50
2019-06-20T07:12:32.415Z,8.10
2019-06-20T07:15:03.728Z,11.80
2019-06-20T07:17:35.122Z,6.13
2019-06-20T07:20:07.717Z,5.17
2019-06-20T07:22:39.847Z,5.03
2019-06-20T07:25:11.750Z,4.97
2019-06-20T07:27:43.890Z,5.20
2019-06-20T07:30:17.148Z,4.53
2019-06-20T07:32:48.427Z,4.67
2019-06-20T07:35:19.373Z,4.40
2019-06-20T07:37:51.057Z,4.33
2019-06-20T07:40:22.909Z,4.57
2019-06-20T07:42:54.453Z,4.50
2019-06-20T07:45:28.814Z,4.90
2019-06-20T07:48:00.520Z,4.50
2019-06-20T07:50:32.526Z,5.07
2019-06-20T07:53:03.905Z,5.03
2019-06-20T07:55:35.694Z,4.37
2019-06-20T07:58:06.805Z,4.70
2019-06-20T08:00:37.894Z,4.60
2019-06-20T08:03:09.507Z,4.47
2019-06-20T08:05:41.256Z,4.60
2019-06-20T08:08:12.944Z,3.90
2019-06-20T08:10:44.664Z,3.87
2019-06-20T08:13:16.169Z,4.00
2019-06-20T08:15:47.829Z,4.23
2019-06-20T08:18:19.981Z,4.20
2019-06-20T08:20:52.514Z,4.03
2019-06-20T08:23:57.099Z,4.10
2019-06-20T08:26:29.353Z,4.00
2019-06-20T08:29:21.123Z,4.37
2019-06-20T08:31:54.003Z,4.37
2019-06-20T08:34:25.918Z,4.40
2019-06-20T08:37:00.207Z,3.87
2019-06-20T08:39:32.556Z,4.20
2019-06-20T08:42:04.342Z,3.90
2019-06-20T08:44:36.155Z,4.00
2019-06-20T08:47:06.984Z,4.80
2019-06-20T08:49:38.032Z,4.00
2019-06-20T08:52:09.344Z,4.00
2019-06-20T08:54:41.090Z,4.07
2019-06-20T08:57:12.790Z,4.50
2019-06-20T08:59:44.090Z,3.70
2019-06-20T09:02:16.080Z,4.10
2019-06-20T09:04:47.386Z,4.40
2019-06-20T09:07:19.191Z,3.80
2019-06-20T09:09:50.641Z,3.83
2019-06-20T09:12:22.428Z,3.87
2019-06-20T09:14:55.095Z,3.90
2019-06-20T09:17:27.147Z,3.77
2019-06-20T09:20:00.151Z,3.53
2019-06-20T09:22:31.990Z,4.10
2019-06-20T09:25:02.973Z,3.77
2019-06-20T09:27:34.944Z,3.43
2019-06-20T09:30:07.375Z,3.80
2019-06-20T09:32:38.862Z,3.50
2019-06-20T09:35:13.083Z,3.93
2019-06-20T09:37:44.487Z,3.80
2019-06-20T09:40:18.241Z,4.17
2019-06-20T09:42:52.877Z,3.93
2019-06-20T09:45:24.308Z,4.37
2019-06-20T09:47:58.566Z,3.93
2019-06-20T09:50:29.946Z,3.70
2019-06-20T09:53:02.232Z,2.93
2019-06-20T09:55:33.627Z,3.37
2019-06-20T09:58:13.349Z,2.33
2019-06-20T10:00:55.116Z,2.60
2019-06-20T10:03:27.768Z,2.60
2019-06-20T10:06:00.100Z,2.70
2019-06-20T10:08:31.561Z,2.47
2019-06-20T10:11:02.976Z,2.80
2019-06-20T10:13:35.112Z,2.37
2019-06-20T10:16:07.164Z,2.40
2019-06-20T10:18:38.478Z,2.37
2019-06-20T10:21:10.307Z,2.37
2019-06-20T10:23:42.130Z,2.67
2019-06-20T10:26:13.737Z,2.33
2019-06-20T10:28:46.319Z,2.27
2019-06-20T10:31:19.107Z,2.53
2019-06-20T10:33:50.823Z,2.50
2019-06-20T10:36:23.052Z,2.77
2019-06-20T10:38:54.794Z,15.53
2019-06-20T10:41:26.426Z,7.30
2019-06-20T10:43:58.143Z,5.90
2019-06-20T10:46:30.233Z,2.70
2019-06-20T10:49:02.369Z,3.33
2019-06-20T10:51:42.416Z,3.10
2019-06-20T10:54:14.349Z,3.10
2019-06-20T10:56:47.098Z,3.33
2019-06-20T10:59:18.653Z,4.00
2019-06-20T11:01:50.678Z,3.60
2019-06-20T11:04:23.048Z,3.50
2019-06-20T11:06:54.465Z,4.00
2019-06-20T11:09:25.871Z,3.70
2019-06-20T11:11:57.677Z,3.93
2019-06-20T11:14:29.179Z,3.63
2019-06-20T11:17:01.162Z,3.73
2019-06-20T11:19:33.485Z,3.97
2019-06-20T11:22:04.967Z,3.60
2019-06-20T11:24:37.640Z,3.50
2019-06-20T11:27:09.642Z,3.10
2019-06-20T11:29:44.081Z,4.63
2019-06-20T11:32:15.904Z,3.10
2019-06-20T11:34:47.619Z,3.83
2019-06-20T11:37:18.719Z,3.53
2019-06-20T11:39:51.353Z,4.00
2019-06-20T11:42:23.263Z,3.63
2019-06-20T11:44:55.174Z,4.13
2019-06-20T11:47:27.208Z,3.90
2019-06-20T11:49:59.079Z,3.47
2019-06-20T11:52:35.257Z,3.47
2019-06-20T11:55:04.650Z,2.30
2019-06-20T11:57:36.431Z,3.10
2019-06-20T12:00:09.506Z,2.70
2019-06-20T12:02:42.789Z,2.20
2019-06-20T12:05:17.751Z,2.33
2019-06-20T12:07:50.014Z,2.07
2019-06-20T12:10:24.479Z,2.00
2019-06-20T12:12:56.020Z,1.80
2019-06-20T12:15:42.763Z,1.97
2019-06-20T12:18:14.808Z,1.70
2019-06-20T12:25:14.704Z,1.70
2019-06-20T12:27:47.657Z,2.30
2019-06-20T12:31:18.960Z,1.90
2019-06-20T12:33:41.006Z,1.53
2019-06-20T12:36:13.131Z,1.30
2019-06-20T12:38:46.253Z,1.40
2019-06-20T12:42:09.630Z,1.47
2019-06-20T12:44:41.924Z,1.50
2019-06-20T12:47:21.981Z,1.67
2019-06-20T12:49:52.886Z,1.90
2019-06-20T12:52:24.608Z,1.97
2019-06-20T12:55:15.451Z,1.93
2019-06-20T12:57:48.535Z,1.73
2019-06-20T13:00:23.934Z,1.70
2019-06-20T13:02:55.999Z,2.03
2019-06-20T13:13:17.144Z,2.17
2019-06-20T13:15:49.053Z,2.00
2019-06-20T13:19:34.770Z,2.10
2019-06-20T13:22:05.820Z,2.30
2019-06-20T13:27:28.320Z,1.90
2019-06-20T13:30:00.646Z,2.37
2019-06-20T13:32:32.588Z,2.23
2019-06-20T13:35:03.804Z,2.00
2019-06-20T13:37:35.944Z,2.00
2019-06-20T13:40:10.186Z,2.10
2019-06-20T13:42:44.210Z,1.90
2019-06-20T13:45:25.035Z,2.07
2019-06-20T13:48:00.243Z,1.83
2019-06-20T13:50:32.206Z,1.73
2019-06-20T13:53:04.371Z,2.20
2019-06-20T13:55:37.347Z,2.40
2019-06-20T13:58:09.781Z,1.93
2019-06-20T14:00:45.008Z,2.80
2019-06-20T14:03:17.363Z,2.27
2019-06-20T14:05:49.926Z,2.20
2019-06-20T14:08:24.622Z,2.23
2019-06-20T14:11:03.713Z,2.23
2019-06-20T14:14:04.165Z,2.00
2019-06-20T14:16:44.810Z,2.50
2019-06-20T14:19:16.999Z,1.70
2019-06-20T14:24:25.375Z,1.83
2019-06-20T14:27:00.449Z,2.43
2019-06-20T14:30:19.830Z,1.97
2019-06-20T14:32:51.850Z,1.90
2019-06-20T14:35:26.595Z,2.00
2019-06-20T14:37:59.607Z,1.70
2019-06-20T14:40:31.587Z,2.30
2019-06-20T14:43:04.062Z,1.90
2019-06-20T14:45:37.969Z,2.40
2019-06-20T14:48:08.843Z,1.70
2019-06-20T14:50:43.811Z,1.60
2019-06-20T14:53:18.299Z,2.10
2019-06-20T14:55:53.932Z,1.90
2019-06-20T14:58:28.281Z,1.40
2019-06-20T15:01:00.300Z,1.50
2019-06-20T15:03:32.483Z,1.73
2019-06-20T15:06:05.266Z,1.57
2019-06-20T15:08:38.353Z,1.23
2019-06-20T15:11:12.475Z,1.40
2019-06-20T15:13:47.660Z,1.50
2019-06-20T15:16:24.544Z,1.27
2019-06-20T15:18:58.010Z,1.57
2019-06-20T15:21:31.879Z,1.47
2019-06-20T15:24:03.655Z,1.80
2019-06-20T15:26:40.795Z,1.40
2019-06-20T15:29:12.968Z,1.87
2019-06-20T15:31:47.679Z,1.63
2019-06-20T15:34:21.554Z,1.40
2019-06-20T15:36:53.468Z,1.57
2019-06-20T15:39:39.133Z,1.77
2019-06-20T15:42:11.123Z,1.53
2019-06-20T15:44:50.086Z,1.40
2019-06-20T15:47:24.970Z,1.30
2019-06-20T15:50:00.859Z,1.40
2019-06-20T15:52:38.345Z,1.30
2019-06-20T15:58:12.849Z,1.10
2019-06-20T16:00:51.596Z,1.33
2019-06-20T16:03:54.809Z,1.30
2019-06-20T16:06:26.895Z,1.40
2019-06-20T16:08:58.233Z,1.33
2019-06-20T16:11:29.830Z,1.30
2019-06-20T16:14:01.171Z,1.53
2019-06-20T16:16:32.858Z,1.30
2019-06-20T16:19:04.296Z,1.30
2019-06-20T16:21:35.939Z,1.10
2019-06-20T16:24:07.899Z,1.00
2019-06-20T16:26:40.153Z,1.30
2019-06-20T16:29:12.001Z,1.40
2019-06-20T16:31:43.690Z,1.23
2019-06-20T16:34:15.401Z,1.60
2019-06-20T16:36:46.694Z,1.57
2019-06-20T16:39:17.919Z,1.40
2019-06-20T16:41:49.041Z,1.60
2019-06-20T16:44:21.855Z,1.13
2019-06-20T16:46:54.181Z,2.07
2019-06-20T16:49:26.107Z,1.40
2019-06-20T16:51:57.428Z,1.60
2019-06-20T16:54:30.188Z,1.60
2019-06-20T16:57:02.190Z,2.00
2019-06-20T16:59:34.362Z,1.60
2019-06-20T17:02:06.117Z,1.70
2019-06-20T17:04:38.235Z,1.50
2019-06-20T17:07:10.110Z,2.17
2019-06-20T17:09:42.705Z,1.87
2019-06-20T17:12:15.098Z,1.87
2019-06-20T17:14:47.781Z,1.60
2019-06-20T17:17:19.901Z,1.67
2019-06-20T17:19:52.628Z,1.60
2019-06-20T17:22:25.529Z,1.77
2019-06-20T17:25:00.400Z,1.90
2019-06-20T17:27:33.004Z,2.07
2019-06-20T17:30:06.010Z,1.90
2019-06-20T17:32:38.283Z,1.70
2019-06-20T17:35:11.441Z,1.60
2019-06-20T17:37:44.967Z,1.70
2019-06-20T17:40:18.515Z,1.27
2019-06-20T17:42:50.713Z,1.40
2019-06-20T17:45:22.958Z,1.40
2019-06-20T17:47:54.276Z,1.00
2019-06-20T17:50:26.106Z,1.00
2019-06-20T17:53:01.253Z,0.80
2019-06-20T17:55:33.558Z,1.00
2019-06-20T17:58:05.244Z,0.83
2019-06-20T18:00:38.165Z,1.00
2019-06-20T18:03:10.912Z,0.90
2019-06-20T18:05:44.619Z,1.10
2019-06-20T18:08:18.166Z,2.73
2019-06-20T18:10:50.611Z,4.80
2019-06-20T18:13:23.083Z,1.50
2019-06-20T18:15:56.596Z,1.77
2019-06-20T18:18:29.865Z,1.40
2019-06-20T18:21:01.536Z,1.20
2019-06-20T18:23:33.190Z,1.13
2019-06-20T18:26:05.122Z,1.10
2019-06-20T18:28:36.923Z,1.13
2019-06-20T18:31:08.640Z,1.20
2019-06-20T18:33:41.130Z,1.80
2019-06-20T18:36:13.144Z,1.10
2019-06-20T18:38:45.444Z,1.00
2019-06-20T18:41:17.607Z,1.13
2019-06-20T18:43:49.399Z,1.20
2019-06-20T18:46:21.591Z,1.30
2019-06-20T18:48:54.005Z,1.20
2019-06-20T18:51:26.344Z,1.03
2019-06-20T18:53:58.549Z,1.20
2019-06-20T18:56:31.009Z,1.30
2019-06-20T18:59:02.575Z,1.33
2019-06-20T19:01:34.548Z,1.07
2019-06-20T19:04:05.907Z,1.50
2019-06-20T19:06:38.207Z,1.40
2019-06-20T19:09:11.818Z,1.40
2019-06-20T19:11:43.331Z,1.40
2019-06-20T19:14:15.329Z,1.40
2019-06-20T19:16:47.682Z,1.60
2019-06-20T19:19:20.896Z,1.47
2019-06-20T19:21:52.753Z,1.80
2019-06-20T19:24:24.674Z,1.37
2019-06-20T19:26:56.074Z,1.40
2019-06-20T19:29:28.289Z,1.13
2019-06-20T19:31:59.725Z,1.30
2019-06-20T19:34:31.397Z,1.30
2019-06-20T19:37:03.613Z,1.67
2019-06-20T19:39:35.673Z,1.50
2019-06-20T19:42:09.502Z,1.40
2019-06-20T19:44:41.779Z,4.27
2019-06-20T19:47:13.744Z,5.20
2019-06-20T19:49:47.211Z,1.80
2019-06-20T19:52:21.707Z,1.50
2019-06-20T19:54:54.136Z,1.60
2019-06-20T19:57:25.650Z,1.30
2019-06-20T19:59:59.103Z,1.30
2019-06-20T20:02:31.080Z,1.40
2019-06-20T20:05:17.763Z,1.23
2019-06-20T20:07:38.059Z,1.50
2019-06-20T20:10:11.933Z,1.20
2019-06-20T20:12:43.474Z,1.30
2019-06-20T20:15:15.523Z,1.17
2019-06-20T20:17:49.251Z,1.27
2019-06-20T20:20:21.495Z,1.40
2019-06-20T20:22:52.714Z,1.30
2019-06-20T20:25:25.455Z,1.40
2019-06-20T20:27:58.443Z,1.20
2019-06-20T20:30:30.625Z,1.40
2019-06-20T20:33:02.235Z,1.47
2019-06-20T20:35:35.748Z,1.60
2019-06-20T20:38:06.984Z,1.27
2019-06-20T20:40:38.676Z,1.53
2019-06-20T20:43:10.539Z,1.43
2019-06-20T20:45:41.992Z,1.57
2019-06-20T20:48:13.972Z,1.70
2019-06-20T20:50:46.074Z,1.57
2019-06-20T20:53:18.043Z,1.50
2019-06-20T20:55:49.778Z,1.30
2019-06-20T20:58:20.631Z,1.60
2019-06-20T21:01:21.988Z,1.60
2019-06-20T21:03:53.767Z,1.80
2019-06-20T21:06:25.645Z,1.70
2019-06-20T21:08:57.031Z,2.10
2019-06-20T21:11:28.892Z,2.00
2019-06-20T21:14:01.030Z,1.73
2019-06-20T21:16:31.831Z,2.20
2019-06-20T21:19:03.418Z,1.97
2019-06-20T21:21:34.878Z,1.90
2019-06-20T21:24:06.282Z,2.10
2019-06-20T21:26:48.937Z,1.90
2019-06-20T21:29:11.454Z,1.97
2019-06-20T21:31:43.195Z,1.80
2019-06-20T21:34:15.102Z,1.87
2019-06-20T21:36:46.800Z,1.87
2019-06-20T21:39:18.293Z,1.70
2019-06-20T21:41:49.998Z,1.80
2019-06-20T21:44:21.820Z,2.07
2019-06-20T21:46:53.323Z,1.60
2019-06-20T21:49:25.412Z,2.07
2019-06-20T21:51:57.194Z,1.87
2019-06-20T21:54:28.928Z,2.23
2019-06-20T21:57:00.922Z,1.80
2019-06-20T21:59:32.954Z,1.83
2019-06-20T22:02:05.080Z,2.07
2019-06-20T22:04:36.528Z,1.70
2019-06-20T22:07:07.975Z,1.80
2019-06-20T22:09:38.718Z,2.00
2019-06-20T22:12:10.124Z,1.93
2019-06-20T22:14:41.457Z,1.93
2019-06-20T22:17:13.165Z,2.20
2019-06-20T22:19:44.771Z,2.03
2019-06-20T22:22:16.110Z,1.90
2019-06-20T22:24:47.483Z,2.37
2019-06-20T22:27:19.558Z,2.40
2019-06-20T22:29:51.245Z,2.10
2019-06-20T22:32:22.520Z,2.30
2019-06-20T22:34:54.151Z,2.27
2019-06-20T22:37:25.944Z,1.90
2019-06-20T22:39:58.276Z,2.20
2019-06-20T22:42:30.209Z,2.10
2019-06-20T22:45:01.647Z,2.37
2019-06-20T22:47:33.160Z,2.17
2019-06-20T22:50:04.246Z,2.00
2019-06-20T22:52:36.270Z,2.17
2019-06-20T22:55:07.953Z,2.50
2019-06-20T22:57:38.716Z,2.27
2019-06-20T23:00:09.752Z,2.10
2019-06-20T23:02:41.438Z,2.20
2019-06-20T23:05:13.483Z,2.13
2019-06-20T23:07:44.634Z,2.30
2019-06-20T23:10:16.668Z,1.90
2019-06-20T23:12:47.913Z,1.87
2019-06-20T23:15:19.612Z,2.30
2019-06-20T23:17:51.279Z,2.00
2019-06-20T23:20:22.739Z,2.10
2019-06-20T23:22:54.556Z,2.03
2019-06-20T23:25:26.895Z,2.03
2019-06-20T23:27:59.237Z,2.37
2019-06-20T23:30:31.101Z,2.17
2019-06-20T23:33:02.929Z,2.10
2019-06-20T23:35:34.736Z,2.33
2019-06-20T23:38:06.114Z,2.53
2019-06-20T23:40:37.811Z,2.37
2019-06-20T23:43:09.840Z,2.10
2019-06-20T23:45:41.235Z,2.43
2019-06-20T23:48:12.761Z,2.37
2019-06-20T23:50:44.898Z,2.20
2019-06-20T23:53:26.909Z,2.20
2019-06-20T23:55:58.425Z,2.60
2019-06-20T23:58:30.436Z,2.07
